Sherwood, Oregon
Current Conditions -  °F | °C
As of 10:53 PM on Saturday 22 Nov 2014 (Local Time) from KUAO Reporting Station
Light Rain Light Rain  
Wind Chill: 42°   Ceiling: 3800
Heat Index: 46°   Visibility: 10mi
Dew Point: 44°   Wind: 7mph
Humidity: 93%   Direction: 190°S
Pressure: 30.25"   Gusts: NA
Location:  45.36°N, 122.84°W
Report Text: KUAO 230653Z AUTO 19006KT 10SM -RA BKN038 OVC048 08/07 A3025 RMK AO2 RAB18 SLP246 P0002 T00780067
Loading
Personal Weather Stations






























Interactive Weather Map New forecast layout! Learn more

10-Day Weather Forecast

Advertisements
Track Severe Weather on mobile